Time;durP1;ratioP1;P1;durP2;ratioP2;P2;SDS_P1;SDS_P2;PMS_P1;PMS_P2;Temp;Humidity;BMP_temperature;BMP_pressure;BME280_temperature;BME280_humidity;BME280_pressure;Samples;Min_cycle;Max_cycle;Signal;HPM_P1;HPM_P2
2021/10/15 00:00:32;;;;;;;9.63;5.47;;;;;;;4.66;100.00;96650.66;4936184;28;20114;-77
2021/10/15 00:03:00;;;;;;;8.90;5.50;;;;;;;4.60;100.00;96646.75;4938593;28;20074;-77
2021/10/15 00:05:28;;;;;;;12.33;5.53;;;;;;;4.61;100.00;96647.56;4937900;28;20031;-77
2021/10/15 00:07:54;;;;;;;9.47;4.97;;;;;;;4.64;100.00;96647.34;4957445;28;20118;-77
2021/10/15 00:10:20;;;;;;;10.23;5.80;;;;;;;4.62;100.00;96649.22;4938588;28;20106;-78
2021/10/15 00:12:45;;;;;;;11.57;6.00;;;;;;;4.66;100.00;96641.09;4954224;28;20058;-77
2021/10/15 00:15:11;;;;;;;10.17;5.50;;;;;;;4.61;100.00;96637.97;4954109;28;20109;-77
2021/10/15 00:17:37;;;;;;;9.63;4.87;;;;;;;4.60;100.00;96640.72;4933949;29;20455;-77
2021/10/15 00:20:04;;;;;;;8.73;5.27;;;;;;;4.54;100.00;96646.38;4935452;28;20034;-77
2021/10/15 00:22:33;;;;;;;9.50;4.90;;;;;;;4.44;100.00;96636.59;4938064;28;20038;-77
2021/10/15 00:24:59;;;;;;;11.57;5.87;;;;;;;4.38;100.00;96644.84;4953537;28;20027;-77
2021/10/15 00:27:25;;;;;;;10.30;4.70;;;;;;;4.31;100.00;96641.03;4938068;28;20046;-77
2021/10/15 00:30:00;;;;;;;8.90;4.77;;;;;;;4.33;100.00;96649.59;4938596;28;20030;-77
2021/10/15 00:32:26;;;;;;;8.90;5.17;;;;;;;4.35;100.00;96641.66;4939188;28;20518;-77
2021/10/15 00:34:59;;;;;;;9.60;6.00;;;;;;;4.32;100.00;96641.88;4958073;28;20099;-77
2021/10/15 00:37:24;;;;;;;10.80;5.18;;;;;;;4.30;100.00;96628.97;4953392;28;20058;-77
2021/10/15 00:39:50;;;;;;;8.90;5.17;;;;;;;4.35;100.00;96634.66;4953450;28;20601;-77
2021/10/15 00:42:21;;;;;;;10.60;5.13;;;;;;;4.34;100.00;96629.59;4937671;28;20030;-77
2021/10/15 00:44:47;;;;;;;8.83;4.83;;;;;;;4.28;100.00;96624.81;4970417;28;20482;-77
2021/10/15 00:47:12;;;;;;;7.97;4.50;;;;;;;4.27;100.00;96629.19;4953949;28;20077;-77
2021/10/15 00:49:38;;;;;;;10.27;5.87;;;;;;;4.28;100.00;96623.03;4937189;28;20414;-77
2021/10/15 00:52:10;;;;;;;10.60;5.40;;;;;;;4.33;100.00;96623.56;4953940;28;20058;-77
2021/10/15 00:54:37;;;;;;;10.53;6.13;;;;;;;4.35;100.00;96618.22;4942066;28;20071;-77
2021/10/15 00:57:03;;;;;;;7.87;4.77;;;;;;;4.40;100.00;96611.75;4953525;28;20034;-78
2021/10/15 00:59:36;;;;;;;8.77;5.13;;;;;;;4.44;100.00;96609.75;4952217;28;20038;-77
2021/10/15 01:02:02;;;;;;;9.73;5.22;;;;;;;4.42;100.00;96604.63;4949840;28;20058;-77
2021/10/15 01:04:28;;;;;;;9.43;6.00;;;;;;;4.44;100.00;96601.94;4954005;28;20031;-77
2021/10/15 01:06:55;;;;;;;10.90;4.80;;;;;;;4.45;100.00;96604.41;4940929;28;20046;-77
2021/10/15 01:09:23;;;;;;;8.90;5.00;;;;;;;4.47;100.00;96599.09;4937498;28;20031;-77
2021/10/15 01:11:50;;;;;;;8.07;5.27;;;;;;;4.55;100.00;96594.16;4953367;28;20038;-78
2021/10/15 01:14:25;;;;;;;8.47;4.37;;;;;;;4.55;100.00;96591.53;4937285;28;20109;-77
2021/10/15 01:17:07;;;;;;;8.77;4.50;;;;;;;4.59;100.00;96586.94;4929586;28;20038;-77
2021/10/15 01:19:34;;;;;;;8.07;4.60;;;;;;;4.60;100.00;96583.41;4933886;29;20039;-77
2021/10/15 01:22:02;;;;;;;8.07;4.80;;;;;;;4.62;100.00;96578.91;4967956;28;20027;-77
2021/10/15 01:24:27;;;;;;;10.47;4.57;;;;;;;4.55;100.00;96577.69;4941323;28;20057;-77
2021/10/15 01:26:53;;;;;;;9.83;5.13;;;;;;;4.56;100.00;96579.34;4956947;28;20042;-77
2021/10/15 01:29:19;;;;;;;7.93;4.57;;;;;;;4.60;100.00;96573.00;4956573;28;20069;-77
2021/10/15 01:31:44;;;;;;;8.43;4.57;;;;;;;4.62;100.00;96571.09;4957044;28;20073;-78
2021/10/15 01:34:10;;;;;;;9.00;4.77;;;;;;;4.56;100.00;96579.34;4956839;28;20126;-76
2021/10/15 01:36:45;;;;;;;8.83;4.17;;;;;;;4.52;100.00;96575.31;4971824;28;20035;-77
2021/10/15 01:39:10;;;;;;;8.83;4.93;;;;;;;4.55;100.00;96569.88;4957095;28;20414;-77
2021/10/15 01:41:36;;;;;;;8.17;4.30;;;;;;;4.56;100.00;96563.72;4957051;28;20110;-77
2021/10/15 01:44:14;;;;;;;7.13;4.20;;;;;;;4.59;100.00;96561.72;4956764;28;20410;-77
2021/10/15 01:46:40;;;;;;;7.30;4.27;;;;;;;4.57;100.00;96563.63;4955968;28;20038;-77
2021/10/15 01:49:06;;;;;;;8.13;4.17;;;;;;;4.62;100.00;96558.06;4956564;28;20027;-77
2021/10/15 01:51:31;;;;;;;8.20;3.70;;;;;;;4.63;100.00;96557.97;4974190;28;20518;-77
2021/10/15 01:53:57;;;;;;;6.87;3.70;;;;;;;4.62;100.00;96555.44;4973647;28;20063;-77
2021/10/15 01:56:23;;;;;;;9.77;3.27;;;;;;;4.68;100.00;96549.78;4973400;28;20038;-77
2021/10/15 01:58:48;;;;;;;6.60;3.30;;;;;;;4.75;100.00;96552.75;4947680;28;20031;-77
2021/10/15 02:01:14;;;;;;;6.27;3.67;;;;;;;4.76;100.00;96546.59;4957161;28;20501;-77
2021/10/15 02:03:40;;;;;;;6.53;3.43;;;;;;;4.71;100.00;96544.34;4975904;28;20031;-77
2021/10/15 02:06:10;;;;;;;9.93;4.30;;;;;;;4.71;100.00;96539.13;4942251;28;20035;-77
2021/10/15 02:08:36;;;;;;;9.30;4.20;;;;;;;4.65;100.00;96531.78;4942435;28;20039;-77
2021/10/15 02:11:10;;;;;;;10.23;4.37;;;;;;;4.66;100.00;96530.81;4958727;28;20358;-77
2021/10/15 02:13:36;;;;;;;8.00;3.67;;;;;;;4.65;100.00;96519.59;4958563;28;20062;-77
2021/10/15 02:16:02;;;;;;;8.93;3.77;;;;;;;4.64;100.00;96517.09;4942361;28;20117;-77
2021/10/15 02:19:04;;;;;;;7.50;3.60;;;;;;;4.63;100.00;96523.28;4942473;28;20054;-78
2021/10/15 02:21:30;;;;;;;7.40;3.93;;;;;;;4.68;100.00;96518.53;4950472;28;20563;-76
2021/10/15 02:23:56;;;;;;;7.73;4.20;;;;;;;4.74;100.00;96507.66;4975743;28;20018;-77
2021/10/15 02:26:21;;;;;;;9.50;5.73;;;;;;;4.71;100.00;96508.69;4957795;28;20042;-77
2021/10/15 02:28:48;;;;;;;9.93;5.07;;;;;;;4.63;100.00;96508.47;4942917;28;20023;-77
2021/10/15 02:31:13;;;;;;;11.53;5.03;;;;;;;4.65;100.00;96506.56;4957838;28;20045;-77
2021/10/15 02:33:39;;;;;;;8.33;4.60;;;;;;;4.68;100.00;96506.31;4957764;28;20747;-77
2021/10/15 02:36:05;;;;;;;7.37;3.93;;;;;;;4.66;100.00;96510.84;4941162;28;20030;-77
2021/10/15 02:38:31;;;;;;;10.37;4.70;;;;;;;4.64;100.00;96504.91;4941767;28;20752;-77
2021/10/15 02:40:57;;;;;;;9.47;5.43;;;;;;;4.68;100.00;96502.91;4958296;28;20030;-77
2021/10/15 02:43:36;;;;;;;8.83;5.33;;;;;;;4.63;100.00;96499.81;4957980;28;20019;-77
2021/10/15 02:46:25;;;;;;;10.13;5.07;;;;;;;4.53;100.00;96499.69;4938090;28;20042;-77
2021/10/15 02:48:51;;;;;;;12.27;5.83;;;;;;;4.51;100.00;96493.75;4949737;28;20114;-77
2021/10/15 02:51:17;;;;;;;9.93;5.63;;;;;;;4.46;100.00;96488.03;4957875;28;20110;-77
2021/10/15 02:53:48;;;;;;;10.17;5.47;;;;;;;4.43;100.00;96489.13;4957583;28;20031;-77
2021/10/15 02:56:14;;;;;;;9.23;5.33;;;;;;;4.49;100.00;96487.81;4952228;28;20121;-76
2021/10/15 02:58:39;;;;;;;9.53;5.33;;;;;;;4.45;100.00;96481.19;4941570;28;20118;-77
2021/10/15 03:01:16;;;;;;;9.17;5.20;;;;;;;4.39;100.00;96486.84;4962928;28;20034;-76
2021/10/15 03:03:43;;;;;;;10.13;5.23;;;;;;;4.33;100.00;96477.75;4972438;28;20027;-76
2021/10/15 03:06:11;;;;;;;9.03;5.17;;;;;;;4.28;100.00;96474.66;4941901;29;20836;-76
2021/10/15 03:08:37;;;;;;;9.53;5.20;;;;;;;4.22;100.00;96481.13;4955546;28;20043;-76
2021/10/15 03:11:03;;;;;;;9.20;5.10;;;;;;;4.22;100.00;96475.91;4954718;28;20041;-76
2021/10/15 03:13:29;;;;;;;10.83;5.63;;;;;;;4.18;100.00;96479.69;4938476;28;20030;-76
2021/10/15 03:15:55;;;;;;;10.40;5.57;;;;;;;4.17;100.00;96479.81;4954484;28;20018;-76
2021/10/15 03:18:22;;;;;;;10.10;5.87;;;;;;;4.12;100.00;96480.16;4942712;29;20386;-76
2021/10/15 03:20:48;;;;;;;9.73;5.83;;;;;;;4.05;100.00;96475.53;4954685;28;20053;-76
2021/10/15 03:23:14;;;;;;;11.00;6.67;;;;;;;4.07;100.00;96479.69;4954774;28;20038;-76
2021/10/15 03:25:40;;;;;;;19.50;12.80;;;;;;;4.13;100.00;96476.63;4945771;28;20031;-76
2021/10/15 03:28:06;;;;;;;45.70;28.70;;;;;;;4.22;100.00;96485.50;4938748;28;20037;-76
2021/10/15 03:30:32;;;;;;;64.77;37.20;;;;;;;4.13;100.00;96470.59;4938765;28;20388;-75
2021/10/15 03:32:58;;;;;;;65.93;39.77;;;;;;;4.11;100.00;96473.28;4954875;28;20126;-76
2021/10/15 03:35:24;;;;;;;70.20;38.77;;;;;;;4.16;100.00;96471.19;4971577;28;20034;-76
2021/10/15 03:37:50;;;;;;;30.70;21.03;;;;;;;4.17;100.00;96472.84;4954539;28;20069;-76
2021/10/15 03:40:16;;;;;;;18.40;13.03;;;;;;;4.14;100.00;96480.06;4951621;28;20104;-76
2021/10/15 03:42:52;;;;;;;12.17;7.80;;;;;;;4.11;100.00;96473.28;4937976;28;20031;-77
2021/10/15 03:45:18;;;;;;;11.30;7.33;;;;;;;4.09;100.00;96475.19;4943193;28;20038;-76
2021/10/15 03:47:45;;;;;;;10.13;6.13;;;;;;;4.04;100.00;96472.09;4954008;28;20505;-76
2021/10/15 03:53:58;;;;;;;12.47;7.23;;;;;;;3.98;100.00;96468.16;4964168;28;20054;-76
2021/10/15 03:56:24;;;;;;;13.30;9.80;;;;;;;3.97;100.00;96470.88;4939722;29;20524;-76
2021/10/15 03:58:50;;;;;;;15.97;9.37;;;;;;;4.01;100.00;96456.69;4972182;28;20466;-76
2021/10/15 04:01:17;;;;;;;14.53;8.83;;;;;;;4.05;100.00;96457.31;4958747;28;20027;-76
2021/10/15 04:03:43;;;;;;;10.47;6.77;;;;;;;4.03;100.00;96454.81;4954172;28;20030;-76
2021/10/15 04:06:16;;;;;;;11.87;6.57;;;;;;;4.11;100.00;96449.03;5055993;27;20707;-71
2021/10/15 04:08:41;;;;;;;10.80;6.47;;;;;;;4.09;100.00;96445.72;5041251;28;20033;-74
2021/10/15 04:11:07;;;;;;;12.73;6.63;;;;;;;4.06;100.00;96451.16;5046588;28;20032;-74
2021/10/15 04:13:33;;;;;;;10.53;6.07;;;;;;;4.06;100.00;96443.34;5053877;28;20037;-74
2021/10/15 04:16:01;;;;;;;10.83;5.80;;;;;;;4.04;100.00;96440.88;5050414;28;20016;-74
2021/10/15 04:18:30;;;;;;;11.63;6.70;;;;;;;4.08;100.00;96442.28;5049270;28;20083;-74
2021/10/15 04:20:56;;;;;;;10.57;6.47;;;;;;;4.07;100.00;96437.22;5056086;28;20020;-74
2021/10/15 04:23:21;;;;;;;10.93;6.17;;;;;;;4.09;100.00;96432.69;5058064;28;20029;-74
2021/10/15 04:25:47;;;;;;;10.07;5.60;;;;;;;4.07;100.00;96430.22;5045343;28;20545;-74
2021/10/15 04:28:13;;;;;;;11.80;5.87;;;;;;;4.08;100.00;96431.88;5052124;28;20048;-74
2021/10/15 04:30:38;;;;;;;10.53;5.47;;;;;;;4.09;100.00;96430.09;5047268;28;20029;-74
2021/10/15 04:33:04;;;;;;;10.77;6.40;;;;;;;4.04;100.00;96430.44;5054569;28;20029;-73
2021/10/15 04:35:30;;;;;;;25.13;12.27;;;;;;;4.03;100.00;96431.41;5053515;28;20022;-74
2021/10/15 04:37:55;;;;;;;47.77;19.90;;;;;;;3.97;100.00;96426.66;5063248;28;20036;-74
2021/10/15 04:40:21;;;;;;;67.43;26.27;;;;;;;3.95;100.00;96421.53;5044455;28;20033;-74
2021/10/15 04:42:47;;;;;;;61.50;27.07;;;;;;;3.89;100.00;96427.22;5056994;28;20172;-74
2021/10/15 04:45:13;;;;;;;49.57;19.83;;;;;;;3.88;100.00;96422.94;5046026;28;20025;-74
2021/10/15 04:47:39;;;;;;;43.03;17.57;;;;;;;3.78;100.00;96420.19;5058252;28;20055;-74
2021/10/15 04:50:05;;;;;;;38.23;17.10;;;;;;;3.74;100.00;96415.34;5049801;28;20085;-74
2021/10/15 04:52:31;;;;;;;32.63;15.23;;;;;;;3.61;100.00;96410.19;5043560;28;20045;-74
2021/10/15 04:54:57;;;;;;;22.87;10.50;;;;;;;3.66;100.00;96402.06;5056639;28;20017;-74
2021/10/15 04:57:24;;;;;;;17.00;8.90;;;;;;;3.70;100.00;96411.31;5048154;28;20033;-74
2021/10/15 04:59:50;;;;;;;24.07;11.17;;;;;;;3.64;100.00;96401.34;5047466;28;20454;-73
2021/10/15 05:02:15;;;;;;;32.43;16.73;;;;;;;3.62;100.00;96405.81;5045275;28;20037;-74
2021/10/15 05:04:41;;;;;;;22.13;10.33;;;;;;;3.67;100.00;96403.72;5044265;28;20685;-74
2021/10/15 05:07:07;;;;;;;17.07;8.97;;;;;;;3.64;100.00;96401.34;5045374;28;20068;-74
2021/10/15 05:09:33;;;;;;;14.27;8.17;;;;;;;3.67;100.00;96407.16;5048794;28;20032;-74
2021/10/15 05:12:01;;;;;;;18.30;7.93;;;;;;;3.62;100.00;96398.88;5046530;28;20109;-75
2021/10/15 05:14:27;;;;;;;16.33;8.43;;;;;;;3.67;100.00;96395.94;5089431;28;20025;-74
2021/10/15 05:16:53;;;;;;;15.07;7.63;;;;;;;3.57;100.00;96403.56;5040090;28;20037;-74
2021/10/15 05:19:20;;;;;;;12.50;7.17;;;;;;;3.50;100.00;96392.78;5034655;28;20041;-74
2021/10/15 05:21:46;;;;;;;14.10;8.70;;;;;;;3.46;100.00;96404.34;5016718;28;20037;-74
2021/10/15 05:24:12;;;;;;;12.17;6.97;;;;;;;3.37;100.00;96393.78;5036594;28;20025;-74
2021/10/15 05:26:38;;;;;;;14.50;8.10;;;;;;;3.38;100.00;96396.25;5026948;28;20042;-74
2021/10/15 05:29:03;;;;;;;14.70;8.00;;;;;;;3.34;100.00;96394.84;5036806;28;20036;-74
2021/10/15 05:31:29;;;;;;;13.33;7.50;;;;;;;3.34;100.00;96394.84;5044492;28;20032;-74
2021/10/15 05:33:55;;;;;;;13.47;6.83;;;;;;;3.34;100.00;96389.63;5031653;28;20024;-74
2021/10/15 05:36:21;;;;;;;13.17;6.93;;;;;;;3.35;100.00;96391.28;5034325;28;20033;-75
2021/10/15 05:38:46;;;;;;;12.40;6.20;;;;;;;3.37;100.00;96378.19;5029916;28;20022;-74
2021/10/15 05:41:13;;;;;;;14.13;6.37;;;;;;;3.37;100.00;96392.00;5025800;28;20030;-74
2021/10/15 05:43:39;;;;;;;10.70;5.90;;;;;;;3.32;100.00;96394.13;5034907;28;20030;-74
2021/10/15 05:46:05;;;;;;;11.70;5.90;;;;;;;3.35;100.00;96388.69;5038759;28;20410;-73
2021/10/15 05:48:30;;;;;;;11.10;6.13;;;;;;;3.37;100.00;96389.41;5030649;28;20555;-74
2021/10/15 05:50:56;;;;;;;15.37;7.30;;;;;;;3.44;100.00;96398.44;5020655;28;22019;-73
2021/10/15 05:53:23;;;;;;;13.03;7.40;;;;;;;3.47;100.00;96384.38;5026258;28;20022;-74
2021/10/15 06:01:14;;;;;;;9.80;6.80;;;;;;;3.84;100.00;96377.28;5031221;28;20032;-74
2021/10/15 06:03:43;;;;;;;10.23;5.40;;;;;;;4.12;100.00;96373.44;5039039;28;20096;-73
2021/10/15 06:13:34;;;;;;;15.03;10.20;;;;;;;4.69;100.00;96372.53;5028174;28;20087;-74
2021/10/15 06:14:45;;;;;;;14.20;8.70;;;;;;;4.92;100.00;96382.91;5025443;28;20396;-74
2021/10/15 06:17:17;;;;;;;13.50;7.50;;;;;;;4.98;100.00;96385.06;5041901;28;20051;-73
2021/10/15 06:22:18;;;;;;;22.10;11.40;;;;;;;5.13;100.00;96385.59;5031159;28;20142;-74
2021/10/15 06:24:44;;;;;;;67.97;29.87;;;;;;;5.39;100.00;96383.53;5036293;28;20063;-74
2021/10/15 06:27:10;;;;;;;42.00;21.33;;;;;;;5.60;100.00;96378.34;5018511;28;20068;-74
2021/10/15 06:29:35;;;;;;;23.20;11.27;;;;;;;5.75;99.80;96384.13;5039912;28;20526;-74
2021/10/15 06:32:01;;;;;;;19.53;8.27;;;;;;;6.10;98.29;96379.47;5034962;28;20067;-74
2021/10/15 06:34:27;;;;;;;14.00;6.60;;;;;;;6.69;97.18;96382.34;5032593;28;20017;-74
2021/10/15 06:36:52;;;;;;;19.13;8.03;;;;;;;7.37;96.25;96379.91;5037487;28;20053;-74
2021/10/15 06:39:18;;;;;;;12.07;7.37;;;;;;;7.32;94.35;96378.53;5033290;28;20028;-74
2021/10/15 06:41:44;;;;;;;13.97;6.00;;;;;;;7.23;93.66;96387.19;5032518;28;20557;-74
2021/10/15 06:44:09;;;;;;;14.40;6.13;;;;;;;7.20;95.38;96384.84;5034113;28;20117;-74
2021/10/15 06:46:35;;;;;;;9.70;5.97;;;;;;;7.22;95.25;96393.41;5036869;28;20123;-73
2021/10/15 06:49:00;;;;;;;14.73;4.77;;;;;;;7.61;93.29;96372.50;5021820;28;20025;-73
2021/10/15 06:51:26;;;;;;;7.83;4.90;;;;;;;8.38;86.68;96376.03;5032948;28;20095;-74
2021/10/15 06:53:52;;;;;;;8.57;5.10;;;;;;;9.09;83.72;96380.72;5029942;28;20022;-74
2021/10/15 06:56:17;;;;;;;10.00;5.73;;;;;;;9.23;83.76;96384.66;5036523;28;20041;-74
2021/10/15 06:58:43;;;;;;;10.83;5.27;;;;;;;9.02;82.95;96385.75;5033487;28;20034;-74
2021/10/15 07:01:09;;;;;;;9.27;5.03;;;;;;;8.53;85.10;96392.13;5039118;28;20043;-74
2021/10/15 07:03:35;;;;;;;8.73;5.27;;;;;;;8.40;88.81;96400.31;5039607;28;20376;-74
2021/10/15 07:06:00;;;;;;;11.13;7.20;;;;;;;8.31;90.17;96398.50;5020471;28;20024;-74
2021/10/15 07:08:27;;;;;;;8.40;5.17;;;;;;;8.31;90.34;96396.69;5033871;28;20419;-74
2021/10/15 07:10:52;;;;;;;9.23;5.17;;;;;;;8.72;89.94;96395.53;5037221;28;20561;-74
2021/10/15 07:13:18;;;;;;;9.07;5.07;;;;;;;9.60;86.64;96395.88;5037475;28;20029;-74
2021/10/15 07:15:46;;;;;;;9.03;5.43;;;;;;;9.87;83.09;96389.72;5034249;28;20083;-74
2021/10/15 07:18:13;;;;;;;10.47;6.00;;;;;;;9.38;82.85;96389.25;5048999;28;20098;-74
2021/10/15 07:20:39;;;;;;;8.47;5.53;;;;;;;10.45;81.60;96391.00;5039315;28;20734;-74
2021/10/15 07:23:05;;;;;;;9.47;5.33;;;;;;;10.21;79.93;96386.38;5043596;28;20114;-74
2021/10/15 07:25:31;;;;;;;9.60;6.10;;;;;;;10.33;80.08;96385.19;5040558;28;20061;-74
2021/10/15 07:27:57;;;;;;;7.40;4.40;;;;;;;10.55;78.10;96391.72;5032914;28;20029;-73
2021/10/15 07:30:22;;;;;;;13.07;5.63;;;;;;;10.77;75.31;96389.56;5040802;28;20040;-74
2021/10/15 07:32:52;;;;;;;9.37;5.53;;;;;;;10.30;78.74;96384.69;5072491;28;20029;-75
2021/10/15 07:35:20;;;;;;;7.83;5.00;;;;;;;9.49;81.28;96387.38;5028836;28;20091;-74
2021/10/15 07:37:45;;;;;;;8.33;5.40;;;;;;;9.94;79.69;96391.75;5035308;28;21179;-74
2021/10/15 07:40:11;;;;;;;9.43;5.57;;;;;;;10.89;76.11;96390.09;5025578;28;20084;-74
2021/10/15 07:42:37;;;;;;;7.70;4.77;;;;;;;11.65;73.02;96389.22;5037229;28;20060;-74
2021/10/15 07:45:04;;;;;;;9.23;5.17;;;;;;;12.37;69.84;96379.69;5026171;28;20557;-74
2021/10/15 07:47:30;;;;;;;10.43;5.57;;;;;;;11.09;72.15;96388.88;5026971;28;20084;-74
2021/10/15 07:49:55;;;;;;;10.97;5.17;;;;;;;10.86;73.47;96393.88;5027647;28;20034;-72
2021/10/15 07:52:22;;;;;;;8.37;5.20;;;;;;;10.41;76.17;96388.84;5036315;28;20037;-72
2021/10/15 07:54:48;;;;;;;8.40;4.97;;;;;;;10.30;77.02;96387.31;5028203;28;20034;-72
2021/10/15 07:57:14;;;;;;;8.50;5.00;;;;;;;10.66;77.50;96388.00;5026003;28;20060;-72
2021/10/15 07:59:40;;;;;;;9.67;5.70;;;;;;;11.06;75.90;96392.63;5021211;28;20049;-72
2021/10/15 08:02:07;;;;;;;7.90;4.83;;;;;;;10.59;77.16;96400.13;5027187;28;20482;-71
2021/10/15 08:04:33;;;;;;;9.37;5.13;;;;;;;11.87;73.41;96387.78;5026400;28;20518;-71
2021/10/15 08:06:58;;;;;;;9.97;6.43;;;;;;;12.72;70.35;96389.03;5027671;28;20048;-71
2021/10/15 08:09:24;;;;;;;7.77;5.03;;;;;;;12.41;70.10;96388.94;5017520;28;20491;-71
2021/10/15 08:11:51;;;;;;;9.17;4.90;;;;;;;13.22;67.68;96395.00;5038555;28;20390;-73
2021/10/15 08:14:20;;;;;;;9.37;6.03;;;;;;;13.23;66.16;96386.06;5014781;28;20396;-73
2021/10/15 08:16:45;;;;;;;8.40;5.07;;;;;;;13.44;65.73;96390.78;5038019;28;20183;-73
2021/10/15 08:19:11;;;;;;;9.93;5.30;;;;;;;13.14;66.62;96397.66;5033729;28;20075;-72
2021/10/15 08:21:37;;;;;;;8.37;4.97;;;;;;;13.18;66.41;96401.63;5035193;28;20029;-73
2021/10/15 08:24:03;;;;;;;8.97;4.60;;;;;;;12.65;67.91;96403.09;5028284;28;20033;-73
2021/10/15 08:26:29;;;;;;;7.80;4.87;;;;;;;13.01;68.22;96397.38;5038094;28;20520;-72
2021/10/15 08:28:59;;;;;;;7.57;4.80;;;;;;;12.51;70.07;96401.97;5027863;28;20099;-73
2021/10/15 08:31:25;;;;;;;7.60;4.97;;;;;;;13.59;68.08;96398.81;5033269;28;20040;-73
2021/10/15 08:33:51;;;;;;;8.20;4.70;;;;;;;14.00;65.93;96399.34;5034563;28;20032;-73
2021/10/15 08:36:17;;;;;;;7.00;4.73;;;;;;;13.06;67.71;96401.16;5027548;28;20064;-72
2021/10/15 08:38:43;;;;;;;8.77;5.43;;;;;;;13.26;69.29;96408.72;5025167;28;20075;-73
2021/10/15 08:41:10;;;;;;;10.27;5.10;;;;;;;12.14;74.24;96399.81;5038392;28;20044;-73
2021/10/15 08:43:39;;;;;;;9.90;5.03;;;;;;;13.82;67.79;96402.28;5036069;28;20139;-71
2021/10/15 08:46:06;;;;;;;8.77;5.17;;;;;;;14.37;66.63;96401.19;5029616;28;20061;-72
2021/10/15 08:48:32;;;;;;;8.07;4.57;;;;;;;14.87;63.29;96401.59;5030032;28;20024;-72
2021/10/15 08:50:58;;;;;;;8.50;4.93;;;;;;;15.40;65.13;96390.88;5028500;28;20029;-72
2021/10/15 08:53:24;;;;;;;8.52;5.13;;;;;;;15.75;62.09;96391.91;5039157;28;20441;-72
2021/10/15 08:55:50;;;;;;;7.95;4.88;;;;;;;14.49;64.51;96401.59;5025154;28;20442;-72
2021/10/15 08:58:16;;;;;;;7.15;4.05;;;;;;;13.98;62.89;96403.16;5052219;28;20059;-72
2021/10/15 09:00:42;;;;;;;8.15;5.20;;;;;;;15.07;62.89;96401.88;5014114;28;20772;-72
2021/10/15 09:03:19;;;;;;;8.82;4.40;;;;;;;15.12;60.86;96406.59;5038825;28;20033;-72
2021/10/15 09:05:55;;;;;;;7.15;4.47;;;;;;;14.53;62.28;96388.88;5034062;28;20120;-72
2021/10/15 09:08:21;;;;;;;7.30;4.40;;;;;;;14.78;62.16;96400.84;5035655;28;20491;-72
2021/10/15 09:10:47;;;;;;;8.05;4.47;;;;;;;14.76;64.21;96402.06;5026242;28;20517;-72
2021/10/15 09:13:20;;;;;;;7.35;4.10;;;;;;;14.15;65.87;96405.53;5044644;28;20029;-75
2021/10/15 09:15:48;;;;;;;7.60;5.07;;;;;;;14.88;64.56;96403.22;5040817;28;20037;-75
2021/10/15 09:18:28;;;;;;;7.47;4.80;;;;;;;13.81;67.11;96411.19;5037377;28;20033;-75
2021/10/15 09:20:54;;;;;;;9.68;5.20;;;;;;;14.05;67.66;96401.47;5031579;28;20141;-75
2021/10/15 09:24:01;;;;;;;7.15;4.63;;;;;;;13.83;69.13;96405.75;5036216;28;20056;-75
2021/10/15 09:26:26;;;;;;;7.47;3.95;;;;;;;14.18;66.02;96404.34;5033902;28;20625;-75
2021/10/15 09:28:52;;;;;;;6.15;3.63;;;;;;;13.82;64.14;96404.13;5037490;28;20139;-75
2021/10/15 09:31:19;;;;;;;8.50;3.97;;;;;;;14.38;63.59;96391.44;5031486;28;20168;-76
2021/10/15 09:33:57;;;;;;;5.78;3.40;;;;;;;14.26;62.69;96392.88;5027473;28;20167;-75
2021/10/15 09:36:23;;;;;;;5.25;3.22;;;;;;;15.18;59.98;96392.63;5035017;28;20029;-74
2021/10/15 09:38:50;;;;;;;7.43;3.97;;;;;;;14.81;59.97;96392.53;5038002;28;20165;-74
2021/10/15 09:41:39;;;;;;;5.40;3.42;;;;;;;15.78;58.67;96383.59;5030631;28;20040;-75
2021/10/15 09:44:34;;;;;;;7.07;3.85;;;;;;;16.16;57.42;96376.22;5024590;28;20091;-75
2021/10/15 09:47:14;;;;;;;7.38;4.65;;;;;;;15.44;58.70;96374.41;5031319;28;20129;-75
2021/10/15 09:49:52;;;;;;;7.95;4.55;;;;;;;15.55;59.15;96378.41;5041079;28;20621;-75
2021/10/15 09:52:37;;;;;;;6.60;4.38;;;;;;;15.47;59.87;96382.00;5036586;28;20466;-75
2021/10/15 09:55:14;;;;;;;7.47;4.07;;;;;;;15.27;60.31;96384.41;5030462;28;20104;-75
2021/10/15 09:57:40;;;;;;;7.40;3.92;;;;;;;15.99;57.57;96382.78;5046136;28;20033;-75
2021/10/15 10:00:15;;;;;;;5.43;3.78;;;;;;;16.22;56.92;96375.44;5030598;28;21590;-75
2021/10/15 10:02:41;;;;;;;6.80;3.53;;;;;;;16.58;56.52;96379.00;5029077;28;20500;-72
2021/10/15 10:05:13;;;;;;;7.03;4.07;;;;;;;15.51;57.20;96385.09;5030354;28;20017;-73
2021/10/15 10:07:41;;;;;;;5.95;3.75;;;;;;;15.50;57.76;96394.88;5031210;28;20040;-72
2021/10/15 10:10:09;;;;;;;6.30;3.70;;;;;;;16.00;56.58;96389.75;5027807;28;20029;-75
2021/10/15 10:12:36;;;;;;;7.70;3.55;;;;;;;16.24;55.32;96384.03;5028668;28;20045;-74
2021/10/15 10:15:08;;;;;;;9.00;4.25;;;;;;;16.41;56.44;96389.91;5039991;28;20030;-74
2021/10/15 10:17:44;;;;;;;8.40;3.53;;;;;;;17.02;55.33;96381.34;5037865;28;20033;-75
2021/10/15 10:20:14;;;;;;;6.57;3.67;;;;;;;16.20;56.88;96377.47;5033776;28;20075;-75
2021/10/15 10:23:12;;;;;;;9.23;4.60;;;;;;;16.87;53.65;96370.03;5034233;28;20029;-74
2021/10/15 10:25:38;;;;;;;6.78;4.50;;;;;;;17.04;55.71;96373.19;5024343;28;20115;-75
2021/10/15 10:28:14;;;;;;;5.95;3.80;;;;;;;17.00;53.80;96372.78;5030863;28;20406;-76
2021/10/15 10:30:42;;;;;;;6.70;3.78;;;;;;;16.51;54.25;96370.97;5042217;28;20458;-76
2021/10/15 10:33:08;;;;;;;6.00;3.67;;;;;;;17.02;55.17;96376.03;5031141;28;20402;-74
2021/10/15 10:35:34;;;;;;;4.97;3.17;;;;;;;17.85;53.17;96381.31;5028573;28;20028;-75
2021/10/15 10:38:29;;;;;;;6.07;3.55;;;;;;;18.56;52.30;96376.25;5036841;28;20103;-76
2021/10/15 10:41:01;;;;;;;5.70;3.50;;;;;;;17.19;53.89;96373.88;5022046;28;20045;-76
2021/10/15 10:43:35;;;;;;;6.63;3.78;;;;;;;18.29;53.88;96363.97;5028228;28;20037;-76
2021/10/15 10:46:29;;;;;;;4.90;3.28;;;;;;;17.42;54.44;96371.72;5035148;28;20627;-75
2021/10/15 10:48:54;;;;;;;7.93;4.10;;;;;;;18.77;52.06;96359.25;5031358;28;20044;-75
2021/10/15 10:51:22;;;;;;;6.28;3.35;;;;;;;18.15;51.53;96357.81;5017310;28;20391;-75
2021/10/15 10:54:03;;;;;;;5.82;3.25;;;;;;;18.47;51.45;96363.34;5029251;28;20033;-75
2021/10/15 10:56:50;;;;;;;4.07;2.33;;;;;;;18.71;50.62;96359.22;5028514;28;20029;-76
2021/10/15 10:59:18;;;;;;;4.80;2.45;;;;;;;17.68;51.59;96365.69;5030152;28;20985;-75
2021/10/15 11:01:54;;;;;;;3.83;2.13;;;;;;;17.99;53.29;96360.88;5031193;28;20033;-72
2021/10/15 11:04:30;;;;;;;8.75;2.30;;;;;;;18.46;50.10;96351.88;5033553;28;20033;-72
2021/10/15 11:07:06;;;;;;;4.32;2.58;;;;;;;18.51;50.63;96349.44;5029021;28;20029;-72
2021/10/15 11:09:35;;;;;;;3.00;1.92;;;;;;;18.26;52.05;96351.06;5034168;28;20506;-73
2021/10/15 11:12:01;;;;;;;3.47;1.88;;;;;;;18.12;52.21;96342.25;5025566;28;20120;-75
2021/10/15 11:14:47;;;;;;;3.05;1.70;;;;;;;18.21;50.93;96340.19;5031622;28;20061;-76
2021/10/15 11:17:13;;;;;;;3.67;1.70;;;;;;;19.18;50.08;96334.16;5036713;28;20033;-75
2021/10/15 11:19:39;;;;;;;3.83;1.70;;;;;;;19.15;48.95;96344.38;5027500;28;20033;-75
2021/10/15 11:22:05;;;;;;;3.38;1.58;;;;;;;19.03;48.96;96341.56;5021877;28;20033;-75
2021/10/15 11:24:31;;;;;;;2.80;1.58;;;;;;;18.54;50.15;96327.72;5036559;28;20041;-76
2021/10/15 11:26:57;;;;;;;2.65;1.42;;;;;;;20.14;47.37;96321.72;5035279;28;20375;-76
2021/10/15 11:29:23;;;;;;;3.20;1.70;;;;;;;19.87;48.08;96319.25;5026665;28;20029;-75
2021/10/15 11:31:53;;;;;;;6.10;2.30;;;;;;;19.17;48.59;96319.16;5027707;28;20494;-75
2021/10/15 11:34:19;;;;;;;3.42;1.95;;;;;;;19.98;47.57;96310.53;5032011;28;20033;-76
2021/10/15 11:36:45;;;;;;;2.83;1.50;;;;;;;18.91;49.45;96321.91;5021680;28;21333;-75
2021/10/15 11:39:10;;;;;;;2.10;1.40;;;;;;;19.34;47.05;96319.50;5027737;28;20541;-76
2021/10/15 11:41:50;;;;;;;6.10;3.10;;;;;;;19.57;45.77;96316.31;5026691;28;20044;-75
2021/10/15 11:44:30;;;;;;;3.35;1.80;;;;;;;19.18;46.83;96318.16;5029180;28;20068;-73
2021/10/15 11:46:56;;;;;;;3.25;1.60;;;;;;;18.96;46.99;96314.13;5036007;28;20061;-74
2021/10/15 11:49:22;;;;;;;4.00;1.90;;;;;;;19.16;47.88;96306.06;5031665;28;20068;-73
2021/10/15 11:51:56;;;;;;;3.70;1.63;;;;;;;18.13;48.85;96315.44;5032582;28;20112;-73